createdAt,value
2023-05-13T00:03:53.591Z,93662.91
2023-05-13T00:08:57.177Z,93666.44
2023-05-13T00:14:00.341Z,93647.50
2023-05-13T00:19:03.973Z,93648.25
2023-05-13T00:24:08.197Z,93619.69
2023-05-13T00:29:12.382Z,93615.19
2023-05-13T00:34:15.577Z,93624.28
2023-05-13T00:39:19.001Z,93633.06
2023-05-13T00:44:23.049Z,93649.94
2023-05-13T00:49:26.599Z,93663.69
2023-05-13T00:54:30.331Z,93649.59
2023-05-13T00:59:34.130Z,93657.88
2023-05-13T01:04:46.796Z,93643.34
2023-05-13T01:10:09.052Z,93666.50
2023-05-13T01:15:26.296Z,93675.09
2023-05-13T01:20:32.148Z,93655.91
2023-05-13T01:25:36.409Z,93681.81
2023-05-13T01:30:40.165Z,93665.38
2023-05-13T01:35:48.224Z,93689.25
2023-05-13T01:40:55.181Z,93677.88
2023-05-13T01:46:00.799Z,93657.16
2023-05-13T01:51:04.972Z,93660.28
2023-05-13T01:56:12.219Z,93665.00
2023-05-13T02:01:16.680Z,93656.75
2023-05-13T02:06:19.938Z,93661.84
2023-05-13T02:11:24.140Z,93669.66
2023-05-13T02:16:27.645Z,93672.81
2023-05-13T02:21:31.738Z,93651.25
2023-05-13T02:26:35.375Z,93645.00
2023-05-13T02:31:39.095Z,93634.03
2023-05-13T02:36:42.976Z,93613.72
2023-05-13T02:41:47.470Z,93608.63
2023-05-13T02:46:51.956Z,93583.97
2023-05-13T02:51:57.645Z,93607.09
2023-05-13T02:57:08.482Z,93596.47
2023-05-13T03:02:11.915Z,93608.63
2023-05-13T03:07:15.748Z,93610.91
2023-05-13T03:12:19.512Z,93587.78
2023-05-13T03:17:25.166Z,93619.97
2023-05-13T03:22:28.688Z,93619.97
2023-05-13T03:27:32.292Z,93640.72
2023-05-13T03:32:36.865Z,93634.47
2023-05-13T03:37:41.156Z,93643.47
2023-05-13T03:42:45.648Z,93634.06
2023-05-13T03:47:51.103Z,93657.19
2023-05-13T03:52:57.246Z,93652.91
2023-05-13T03:58:00.863Z,93668.19
2023-05-13T04:03:04.872Z,93693.63
2023-05-13T04:08:09.036Z,93684.59
2023-05-13T04:13:14.928Z,93686.56
2023-05-13T04:18:20.247Z,93660.72
2023-05-13T04:23:24.029Z,93675.16
2023-05-13T04:28:27.848Z,93697.47
2023-05-13T04:33:31.033Z,93692.75
2023-05-13T04:38:35.157Z,93677.53
2023-05-13T04:43:39.390Z,93705.69
2023-05-13T04:48:43.298Z,93695.84
2023-05-13T04:53:47.957Z,93692.72
2023-05-13T04:58:51.502Z,93684.53
2023-05-13T05:03:56.128Z,93685.63
2023-05-13T05:08:59.955Z,93706.00
2023-05-13T05:14:03.712Z,93690.00
2023-05-13T05:19:07.800Z,93706.84
2023-05-13T05:24:12.396Z,93699.47
2023-05-13T05:29:16.376Z,93657.22
2023-05-13T05:34:20.840Z,93620.25
2023-05-13T05:39:25.476Z,93593.47
2023-05-13T05:44:29.280Z,93623.56
2023-05-13T05:49:34.519Z,93649.69
2023-05-13T05:54:38.582Z,93673.53
2023-05-13T05:59:42.764Z,93683.16
2023-05-13T06:04:46.901Z,93698.72
2023-05-13T06:09:50.606Z,93707.00
2023-05-13T06:14:55.067Z,93699.28
2023-05-13T06:19:59.117Z,93679.28
2023-05-13T06:25:02.944Z,93657.78
2023-05-13T06:30:07.369Z,93631.50
2023-05-13T06:35:10.799Z,93618.53
2023-05-13T06:40:14.940Z,93615.97
2023-05-13T06:45:23.686Z,93625.22
2023-05-13T06:50:27.693Z,93598.56
2023-05-13T06:55:31.169Z,93613.84
2023-05-13T07:00:38.435Z,93623.09
2023-05-13T07:05:42.865Z,93663.31
2023-05-13T07:10:47.071Z,93714.81
2023-05-13T07:15:51.013Z,93757.16
2023-05-13T07:20:54.955Z,93829.28
2023-05-13T07:25:58.796Z,93847.41
2023-05-13T07:31:02.551Z,93790.97
2023-05-13T07:36:06.900Z,93712.97
2023-05-13T07:41:11.199Z,93790.91
2023-05-13T07:46:15.221Z,93792.38
2023-05-13T07:51:18.710Z,93796.25
2023-05-13T07:56:22.282Z,93810.38
2023-05-13T08:01:26.193Z,93855.59
2023-05-13T08:06:29.481Z,93865.84
2023-05-13T08:11:33.087Z,93869.41
2023-05-13T08:16:36.695Z,93905.56
2023-05-13T08:21:40.256Z,93877.22
2023-05-13T08:26:43.844Z,93872.16
2023-05-13T08:31:47.971Z,93857.97
2023-05-13T08:36:51.578Z,93830.75
2023-05-13T08:41:58.261Z,93816.91
2023-05-13T08:47:24.557Z,93818.97
2023-05-13T08:52:28.591Z,93814.66
2023-05-13T08:57:31.700Z,93784.53
2023-05-13T09:02:35.446Z,93775.94
2023-05-13T09:07:40.347Z,93756.47
2023-05-13T09:12:49.602Z,93794.31
2023-05-13T09:17:56.179Z,93786.63
2023-05-13T09:23:09.078Z,93783.91
2023-05-13T09:28:15.728Z,93806.41
2023-05-13T09:33:20.514Z,93826.38
2023-05-13T09:38:29.811Z,93831.78
2023-05-13T09:43:33.781Z,93848.09
2023-05-13T09:48:38.578Z,93847.66
2023-05-13T09:53:42.277Z,93816.59
2023-05-13T09:58:53.250Z,93807.22
2023-05-13T10:03:59.795Z,93777.91
2023-05-13T10:09:05.279Z,93773.38
2023-05-13T10:14:09.455Z,93782.06
2023-05-13T10:19:13.840Z,93769.19
2023-05-13T10:24:17.193Z,93788.69
2023-05-13T10:29:23.837Z,93789.34
2023-05-13T10:34:27.860Z,93776.00
2023-05-13T10:39:50.808Z,93751.94
2023-05-13T10:44:59.177Z,93761.38
2023-05-13T10:50:31.419Z,93775.25
2023-05-13T10:55:41.621Z,93799.03
2023-05-13T11:00:48.706Z,93790.06
2023-05-13T11:06:16.172Z,93769.91
2023-05-13T11:11:28.537Z,93818.66
2023-05-13T11:16:34.308Z,93775.31
2023-05-13T11:21:40.446Z,93765.53
2023-05-13T11:26:54.560Z,93736.94
2023-05-13T11:32:06.807Z,93745.31
2023-05-13T11:37:12.317Z,93729.97
2023-05-13T11:42:18.552Z,93735.09
2023-05-13T11:47:32.041Z,93733.63
2023-05-13T11:52:41.583Z,93764.66
2023-05-13T11:57:50.905Z,93766.25
2023-05-13T12:02:57.070Z,93730.56
2023-05-13T12:08:03.219Z,93715.34
2023-05-13T12:13:09.860Z,93717.00
2023-05-13T12:18:16.938Z,93693.66
2023-05-13T12:23:23.424Z,93716.69
2023-05-13T12:28:30.947Z,93706.88
2023-05-13T12:33:41.823Z,93692.56
2023-05-13T12:39:02.473Z,93685.97
2023-05-13T12:44:10.023Z,93689.50
2023-05-13T12:49:16.038Z,93679.09
2023-05-13T12:54:19.410Z,93681.72
2023-05-13T12:59:23.311Z,93704.16
2023-05-13T13:04:26.989Z,93719.63
2023-05-13T13:09:30.649Z,93710.94
2023-05-13T13:14:33.991Z,93694.13
2023-05-13T13:19:37.695Z,93711.88
2023-05-13T13:24:41.496Z,93683.53
2023-05-13T13:29:45.945Z,93686.41
2023-05-13T13:34:49.458Z,93631.56
2023-05-13T13:39:52.597Z,93640.94
2023-05-13T13:44:56.863Z,93648.31
2023-05-13T13:50:00.560Z,93685.66
2023-05-13T13:55:04.000Z,93718.25
2023-05-13T14:00:08.588Z,93673.56
2023-05-13T14:05:13.554Z,93696.53
2023-05-13T14:10:16.787Z,93690.56
2023-05-13T14:15:20.564Z,93707.72
2023-05-13T14:20:25.372Z,93688.41
2023-05-13T14:25:28.923Z,93715.78
2023-05-13T14:30:32.637Z,93658.22
2023-05-13T14:35:36.301Z,93649.25
2023-05-13T14:40:40.138Z,93613.97
2023-05-13T14:45:43.748Z,93600.56
2023-05-13T14:50:47.491Z,93557.81
2023-05-13T14:55:51.755Z,93535.91
2023-05-13T15:00:56.370Z,93519.59
2023-05-13T15:06:00.097Z,93516.69
2023-05-13T15:11:05.063Z,93507.72
2023-05-13T15:16:08.808Z,93503.44
2023-05-13T15:21:13.127Z,93494.56
2023-05-13T15:26:16.803Z,93484.25
2023-05-13T15:31:21.339Z,93473.88
2023-05-13T15:36:25.670Z,93433.84
2023-05-13T15:41:29.678Z,93455.41
2023-05-13T15:46:33.852Z,93463.38
2023-05-13T15:51:37.402Z,93449.94
2023-05-13T15:56:42.323Z,93464.28
2023-05-13T16:01:47.025Z,93483.22
2023-05-13T16:06:51.202Z,93472.41
2023-05-13T16:11:56.330Z,93447.84
2023-05-13T16:17:01.003Z,93432.19
2023-05-13T16:22:41.611Z,93449.84
2023-05-13T16:27:45.052Z,93438.63
2023-05-13T16:32:53.401Z,93435.38
2023-05-13T16:37:57.254Z,93436.44
2023-05-13T16:43:03.824Z,93454.69
2023-05-13T16:48:08.552Z,93444.63
2023-05-13T16:53:13.232Z,93447.53
2023-05-13T16:58:17.544Z,93422.09
2023-05-13T17:03:20.999Z,93442.72
2023-05-13T17:08:24.762Z,93426.78
2023-05-13T17:13:27.975Z,93410.63
2023-05-13T17:18:31.015Z,93442.75
2023-05-13T17:23:34.446Z,93467.69
2023-05-13T17:28:40.557Z,93469.63
2023-05-13T17:33:44.299Z,93479.59
2023-05-13T17:38:49.957Z,93493.13
2023-05-13T17:43:53.156Z,93493.47
2023-05-13T17:48:56.410Z,93484.88
2023-05-13T17:53:59.523Z,93498.09
2023-05-13T17:59:02.694Z,93479.34
2023-05-13T18:04:05.864Z,93499.06
2023-05-13T18:09:09.031Z,93513.50
2023-05-13T18:14:12.152Z,93509.41
2023-05-13T18:19:15.254Z,93517.81
2023-05-13T18:24:18.455Z,93502.94
2023-05-13T18:29:21.551Z,93532.69
2023-05-13T18:34:25.069Z,93509.09
2023-05-13T18:39:28.163Z,93489.44
2023-05-13T18:44:31.186Z,93483.94
2023-05-13T18:49:34.395Z,93472.53
2023-05-13T18:54:37.741Z,93487.34
2023-05-13T18:59:41.406Z,93496.28
2023-05-13T19:04:44.574Z,93492.50
2023-05-13T19:09:48.663Z,93504.50
2023-05-13T19:14:52.009Z,93495.34
2023-05-13T19:19:55.549Z,93446.44
2023-05-13T19:24:58.598Z,93451.63
2023-05-13T19:30:02.101Z,93452.50
2023-05-13T19:35:06.138Z,93465.88
2023-05-13T19:40:09.747Z,93436.69
2023-05-13T19:45:12.815Z,93447.50
2023-05-13T19:50:16.314Z,93430.00
2023-05-13T19:55:20.566Z,93427.28
2023-05-13T20:00:24.100Z,93461.19
2023-05-13T20:05:27.473Z,93443.63
2023-05-13T20:10:30.999Z,93432.28
2023-05-13T20:15:34.244Z,93447.50
2023-05-13T20:20:37.678Z,93456.16
2023-05-13T20:25:40.903Z,93445.34
2023-05-13T20:30:43.928Z,93462.28
2023-05-13T20:35:47.945Z,93436.22
2023-05-13T20:40:51.236Z,93438.63
2023-05-13T20:45:54.508Z,93434.38
2023-05-13T20:51:06.162Z,93403.47
2023-05-13T20:56:10.488Z,93403.03
2023-05-13T21:01:13.892Z,93428.72
2023-05-13T21:06:16.963Z,93430.09
2023-05-13T21:11:20.084Z,93397.31
2023-05-13T21:16:23.538Z,93443.31
2023-05-13T21:21:26.781Z,93424.91
2023-05-13T21:26:29.908Z,93399.84
2023-05-13T21:31:33.047Z,93454.06
2023-05-13T21:36:39.149Z,93470.94
2023-05-13T21:41:42.358Z,93456.09
2023-05-13T21:46:45.520Z,93431.91
2023-05-13T21:51:49.027Z,93431.72
2023-05-13T21:56:52.236Z,93364.00
2023-05-13T22:01:55.578Z,93409.56
2023-05-13T22:06:58.666Z,93386.69
2023-05-13T22:12:02.322Z,93373.28
2023-05-13T22:17:09.845Z,93484.09
2023-05-13T22:22:13.549Z,93483.16
2023-05-13T22:27:17.508Z,93470.25
2023-05-13T22:32:20.744Z,93469.56
2023-05-13T22:37:23.879Z,93466.00
2023-05-13T22:42:27.638Z,93484.97
2023-05-13T22:47:30.903Z,93487.66
2023-05-13T22:52:34.127Z,93469.59
2023-05-13T22:57:37.128Z,93455.50
2023-05-13T23:02:40.357Z,93455.22
2023-05-13T23:07:43.472Z,93436.38
2023-05-13T23:12:46.609Z,93432.91
2023-05-13T23:17:49.670Z,93439.59
2023-05-13T23:22:52.749Z,93398.00
2023-05-13T23:27:55.960Z,93369.25
2023-05-13T23:32:59.318Z,93369.56
2023-05-13T23:38:02.772Z,93337.19
2023-05-13T23:43:06.000Z,93355.34
2023-05-13T23:48:09.270Z,93341.22
2023-05-13T23:53:12.582Z,93263.13
2023-05-13T23:58:15.815Z,93290.84
